Time;durP1;ratioP1;P1;durP2;ratioP2;P2;SDS_P1;SDS_P2;PMS_P1;PMS_P2;Temp;Humidity;BMP_temperature;BMP_pressure;BME280_temperature;BME280_humidity;BME280_pressure;Samples;Min_cycle;Max_cycle;Signal;HPM_P1;HPM_P2
2021/01/18 00:00:58;;;;;;;53.57;25.37;;;38.40;2201.60;;;;;;5105506;28;20074;-57
2021/01/18 00:03:24;;;;;;;52.03;25.67;;;38.60;2201.60;;;;;;5095231;28;21183;-57
2021/01/18 00:05:50;;;;;;;53.47;27.07;;;38.80;2201.60;;;;;;5102718;28;20040;-58
2021/01/18 00:08:15;;;;;;;58.10;28.13;;;38.90;2201.60;;;;;;5108481;28;20169;-57
2021/01/18 00:10:41;;;;;;;57.40;28.57;;;38.90;2201.60;;;;;;5095648;28;20047;-57
2021/01/18 00:13:07;;;;;;;60.10;28.13;;;38.90;2201.60;;;;;;5099515;28;20462;-57
2021/01/18 00:15:32;;;;;;;56.77;27.30;;;38.90;2201.60;;;;;;5092487;28;20066;-57
2021/01/18 00:17:58;;;;;;;59.83;28.23;;;38.90;2201.60;;;;;;5108379;28;20028;-57
2021/01/18 00:20:24;;;;;;;53.20;24.97;;;38.70;2201.60;;;;;;5107489;28;20036;-57
2021/01/18 00:22:50;;;;;;;55.70;28.40;;;38.60;2201.60;;;;;;5110309;28;20016;-57
2021/01/18 00:25:18;;;;;;;58.00;28.97;;;38.90;2201.60;;;;;;5109983;28;20020;-57
2021/01/18 00:27:44;;;;;;;64.55;30.02;;;38.70;2201.60;;;;;;5110996;28;20020;-57
2021/01/18 00:30:28;;;;;;;65.67;32.57;;;38.50;2201.60;;;;;;5111564;28;20030;-57
2021/01/18 00:32:53;;;;;;;61.10;30.83;;;38.60;2201.60;;;;;;5106404;28;20388;-57
2021/01/18 00:35:20;;;;;;;74.13;34.93;;;38.50;2201.60;;;;;;5110204;28;20099;-57
2021/01/18 00:37:51;;;;;;;70.83;35.00;;;38.40;2201.60;;;;;;5101389;28;20023;-57
2021/01/18 00:40:19;;;;;;;72.77;35.47;;;38.50;2201.60;;;;;;5108898;28;20035;-57
2021/01/18 00:42:46;;;;;;;80.70;38.13;;;38.50;2201.60;;;;;;5108039;28;20048;-57
2021/01/18 00:45:14;;;;;;;77.43;37.63;;;38.50;2201.60;;;;;;5094313;28;20031;-57
2021/01/18 00:47:58;;;;;;;79.05;38.70;;;38.50;2201.60;;;;;;5111637;28;20028;-58
2021/01/18 00:50:26;;;;;;;84.13;39.83;;;38.50;2201.60;;;;;;5114470;28;20027;-57
2021/01/18 00:52:53;;;;;;;89.90;43.47;;;38.50;2201.60;;;;;;5113703;28;20011;-57
2021/01/18 00:55:22;;;;;;;101.90;47.17;;;38.50;2201.60;;;;;;5115174;28;20100;-57
2021/01/18 00:57:48;;;;;;;107.05;50.60;;;38.50;2201.60;;;;;;5112845;28;20031;-57
2021/01/18 01:00:19;;;;;;;113.80;52.63;;;38.50;2201.60;;;;;;5104028;28;20064;-57
2021/01/18 01:02:47;;;;;;;115.07;56.07;;;38.50;2201.60;;;;;;5083082;28;20095;-57
2021/01/18 01:05:15;;;;;;;127.93;59.20;;;38.60;2201.60;;;;;;5095355;28;20059;-56
2021/01/18 01:07:43;;;;;;;125.70;55.50;;;38.70;2201.60;;;;;;5095701;28;20024;-56
2021/01/18 01:10:11;;;;;;;122.33;54.10;;;38.70;2201.60;;;;;;5095577;28;20031;-57
2021/01/18 01:12:38;;;;;;;110.97;51.87;;;38.80;2201.60;;;;;;5095573;28;20070;-57
2021/01/18 01:15:10;;;;;;;119.80;52.93;;;38.80;2201.60;;;;;;5077002;28;20471;-57
2021/01/18 01:17:45;;;;;;;119.13;53.70;;;38.80;2201.60;;;;;;5095805;28;20417;-57
2021/01/18 01:20:13;;;;;;;111.10;50.27;;;38.80;2201.60;;;;;;5095468;28;20036;-57
2021/01/18 01:22:39;;;;;;;114.63;52.47;;;38.80;2201.60;;;;;;5093967;28;20363;-57
2021/01/18 01:25:13;;;;;;;122.27;53.23;;;38.80;2201.60;;;;;;5098899;28;20028;-57
2021/01/18 01:27:39;;;;;;;107.10;49.53;;;38.70;2201.60;;;;;;5103234;28;20082;-57
2021/01/18 01:30:11;;;;;;;98.80;44.20;;;38.70;2201.60;;;;;;5109263;28;20059;-57
2021/01/18 01:32:41;;;;;;;110.87;49.50;;;38.70;2201.60;;;;;;5109101;28;20023;-56
2021/01/18 01:35:08;;;;;;;112.53;48.33;;;38.60;2201.60;;;;;;5115881;28;20122;-57
2021/01/18 01:37:35;;;;;;;113.77;47.03;;;38.70;2201.60;;;;;;5116166;28;20081;-57
2021/01/18 01:40:01;;;;;;;120.27;51.57;;;38.90;2201.60;;;;;;5101014;28;20051;-57
2021/01/18 01:42:26;;;;;;;101.00;45.70;;;38.80;2201.60;;;;;;5116563;28;20027;-58
2021/01/18 01:44:52;;;;;;;99.10;44.77;;;38.70;2201.60;;;;;;5115909;28;20454;-57
2021/01/18 01:47:27;;;;;;;99.17;45.13;;;38.60;2201.60;;;;;;5115520;28;20365;-57
2021/01/18 01:49:53;;;;;;;105.60;46.33;;;38.70;2201.60;;;;;;5115375;28;20477;-56
2021/01/18 01:52:25;;;;;;;105.93;47.93;;;38.70;2201.60;;;;;;5115456;28;20047;-56
2021/01/18 01:54:55;;;;;;;102.50;45.90;;;38.80;2201.60;;;;;;5115048;28;20488;-57
2021/01/18 01:57:23;;;;;;;106.63;48.63;;;38.90;2201.60;;;;;;5087226;28;20038;-57
2021/01/18 01:59:50;;;;;;;104.68;46.53;;;38.80;2201.60;;;;;;5115301;28;20836;-57
2021/01/18 02:02:16;;;;;;;111.60;48.43;;;38.90;2201.60;;;;;;5114983;28;20024;-56
2021/01/18 02:04:41;;;;;;;105.87;45.97;;;38.90;2201.60;;;;;;5115080;28;20046;-56
2021/01/18 02:07:27;;;;;;;112.70;46.13;;;38.90;2201.60;;;;;;5100465;28;20363;-56
2021/01/18 02:09:55;;;;;;;108.03;44.43;;;38.80;2201.60;;;;;;5114847;28;20024;-56
2021/01/18 02:12:22;;;;;;;106.70;44.67;;;38.90;2201.60;;;;;;5114672;28;20034;-57
2021/01/18 02:15:01;;;;;;;99.57;44.57;;;38.90;2201.60;;;;;;5115225;28;20039;-56
2021/01/18 02:17:54;;;;;;;102.17;42.77;;;38.90;2201.60;;;;;;5110937;28;20020;-57
2021/01/18 02:20:57;;;;;;;117.70;47.30;;;39.00;2201.60;;;;;;5108149;28;20110;-57
2021/01/18 02:23:52;;;;;;;120.30;48.53;;;39.00;2201.60;;;;;;5095271;28;20024;-57
2021/01/18 02:26:39;;;;;;;103.17;43.03;;;38.80;2201.60;;;;;;5087061;28;20058;-57
2021/01/18 02:29:29;;;;;;;102.93;45.07;;;38.80;2201.60;;;;;;5113901;28;20030;-57
2021/01/18 02:32:10;;;;;;;105.67;44.80;;;38.70;2201.60;;;;;;5104148;28;20023;-56
2021/01/18 02:35:09;;;;;;;108.37;46.73;;;38.60;2201.60;;;;;;5100220;28;20480;-57
2021/01/18 02:38:00;;;;;;;108.00;45.40;;;38.50;2201.60;;;;;;5102358;28;20039;-57
2021/01/18 02:40:49;;;;;;;108.30;45.30;;;38.40;2201.60;;;;;;5102027;28;20118;-56
2021/01/18 02:43:18;;;;;;;113.63;45.27;;;38.40;2201.60;;;;;;5107664;28;20027;-56
2021/01/18 02:45:46;;;;;;;111.37;43.93;;;38.40;2201.60;;;;;;5097495;28;20016;-56
2021/01/18 02:48:13;;;;;;;101.13;43.53;;;38.40;2201.60;;;;;;5114025;28;20024;-57
2021/01/18 02:50:40;;;;;;;98.90;43.03;;;38.50;2201.60;;;;;;5110378;28;20020;-56
2021/01/18 02:53:06;;;;;;;100.47;41.77;;;38.50;2201.60;;;;;;5095537;28;20024;-56
2021/01/18 02:55:32;;;;;;;91.73;40.90;;;38.40;2201.60;;;;;;5107782;28;20530;-56
2021/01/18 02:58:02;;;;;;;98.63;41.90;;;38.40;2201.60;;;;;;5093628;28;20032;-56
2021/01/18 03:00:40;;;;;;;86.93;40.97;;;13.70;2201.60;;;;;;5109613;28;20039;-57
2021/01/18 03:03:29;;;;;;;94.07;41.22;;;13.70;2201.60;;;;;;5110157;28;20373;-57
2021/01/18 03:06:15;;;;;;;85.37;39.33;;;13.70;2201.60;;;;;;5098128;28;20051;-56
2021/01/18 03:08:43;;;;;;;85.40;38.47;;;13.70;2201.60;;;;;;5107193;28;20083;-56
2021/01/18 03:11:34;;;;;;;85.57;40.53;;;13.70;2201.60;;;;;;5093141;28;20020;-56
2021/01/18 03:14:10;;;;;;;85.43;40.70;;;13.60;2201.60;;;;;;5093207;28;20389;-56
2021/01/18 03:16:40;;;;;;;80.77;38.17;;;13.60;2201.60;;;;;;5105586;28;20031;-57
2021/01/18 03:19:08;;;;;;;82.33;39.97;;;13.70;2201.60;;;;;;5094590;28;20355;-56
2021/01/18 03:21:34;;;;;;;86.85;37.35;;;13.60;2201.60;;;;;;5093397;28;20086;-56
2021/01/18 03:24:00;;;;;;;87.80;38.90;;;13.60;2201.60;;;;;;5092795;28;20397;-56
2021/01/18 03:26:26;;;;;;;90.20;40.03;;;13.60;2201.60;;;;;;5093127;28;20023;-57
2021/01/18 03:28:55;;;;;;;85.97;39.90;;;13.60;2201.60;;;;;;5107620;28;20480;-57
2021/01/18 03:31:21;;;;;;;82.57;38.40;;;13.60;2201.60;;;;;;5113679;28;20110;-57
2021/01/18 03:33:47;;;;;;;89.40;39.87;;;13.60;2201.60;;;;;;5095250;28;20023;-57
2021/01/18 03:36:13;;;;;;;82.93;38.17;;;38.40;2201.60;;;;;;5096465;28;20039;-56
2021/01/18 03:38:39;;;;;;;90.10;37.60;;;38.50;2201.60;;;;;;5100985;28;20064;-58
2021/01/18 03:41:05;;;;;;;92.03;39.20;;;38.60;2201.60;;;;;;5105914;28;20113;-58
2021/01/18 03:43:30;;;;;;;91.80;38.60;;;38.80;2201.60;;;;;;5106297;28;20016;-58
2021/01/18 03:45:56;;;;;;;92.97;37.93;;;39.00;2201.60;;;;;;5113288;28;20105;-58
2021/01/18 03:48:22;;;;;;;97.53;43.27;;;39.10;2201.60;;;;;;5113260;28;20469;-58
2021/01/18 03:50:49;;;;;;;114.60;44.27;;;39.10;2201.60;;;;;;5098975;28;20488;-55
2021/01/18 03:53:15;;;;;;;108.53;41.67;;;39.10;2201.60;;;;;;5113155;28;20098;-58
2021/01/18 03:55:41;;;;;;;106.63;44.23;;;39.10;2201.60;;;;;;5097163;28;20036;-57
2021/01/18 03:58:07;;;;;;;101.00;42.20;;;39.20;2201.60;;;;;;5100260;28;20027;-57
2021/01/18 04:00:35;;;;;;;104.80;45.33;;;39.20;2201.60;;;;;;5112937;28;20092;-58
2021/01/18 04:03:00;;;;;;;109.13;43.33;;;39.20;2201.60;;;;;;5098902;28;20476;-57
2021/01/18 04:05:27;;;;;;;101.17;43.03;;;39.20;2201.60;;;;;;5113406;28;20047;-58
2021/01/18 04:07:53;;;;;;;106.43;42.03;;;39.20;2201.60;;;;;;5098602;28;20032;-58
2021/01/18 04:10:28;;;;;;;99.53;42.07;;;39.10;2201.60;;;;;;5092840;28;20047;-58
2021/01/18 04:12:54;;;;;;;102.40;40.83;;;39.20;2201.60;;;;;;5094791;28;20063;-58
2021/01/18 04:15:23;;;;;;;109.70;43.93;;;39.30;2201.60;;;;;;5094563;28;20034;-58
2021/01/18 04:17:51;;;;;;;99.95;37.88;;;39.30;2201.60;;;;;;5095078;28;20470;-58
2021/01/18 04:20:18;;;;;;;97.28;40.15;;;39.30;2201.60;;;;;;5096937;28;20359;-59
2021/01/18 04:22:45;;;;;;;91.80;36.47;;;64.00;2201.60;;;;;;5098219;28;20378;-60
2021/01/18 04:25:12;;;;;;;89.40;35.93;;;64.10;2201.60;;;;;;5097332;28;20055;-58
2021/01/18 04:27:38;;;;;;;100.47;37.67;;;64.20;2201.60;;;;;;5098901;28;20450;-58
2021/01/18 04:30:06;;;;;;;76.97;32.27;;;64.30;2201.60;;;;;;5079118;28;20043;-58
2021/01/18 04:32:32;;;;;;;83.77;33.97;;;64.30;2201.60;;;;;;5097905;28;20035;-58
2021/01/18 04:34:57;;;;;;;79.07;34.00;;;64.50;2201.60;;;;;;5097555;28;20103;-59
2021/01/18 04:37:23;;;;;;;76.10;31.50;;;64.60;2201.60;;;;;;5096297;28;20389;-56
2021/01/18 04:39:48;;;;;;;77.10;32.90;;;64.70;2201.60;;;;;;5095822;28;20089;-58
2021/01/18 04:42:15;;;;;;;83.30;34.00;;;64.60;2201.60;;;;;;5096009;28;20485;-58
2021/01/18 04:44:41;;;;;;;77.10;33.70;;;64.60;2201.60;;;;;;5096480;28;20415;-56
2021/01/18 04:47:12;;;;;;;79.83;34.53;;;64.80;2201.60;;;;;;5096281;28;20103;-57
2021/01/18 04:49:40;;;;;;;84.77;33.63;;;64.70;2201.60;;;;;;5096022;28;20020;-58
2021/01/18 04:52:11;;;;;;;84.95;36.38;;;64.70;2201.60;;;;;;5095884;28;20028;-58
2021/01/18 04:54:44;;;;;;;86.00;35.03;;;64.60;2201.60;;;;;;5095937;28;20103;-58
2021/01/18 04:57:15;;;;;;;83.63;33.93;;;64.60;2201.60;;;;;;5095890;28;20028;-59
2021/01/18 04:59:46;;;;;;;76.37;33.70;;;64.60;2201.60;;;;;;5095901;28;20570;-58
2021/01/18 05:02:16;;;;;;;78.70;33.77;;;64.50;2201.60;;;;;;5096826;28;20027;-57
2021/01/18 05:04:44;;;;;;;73.30;30.17;;;64.40;2201.60;;;;;;5107132;28;20039;-65
2021/01/18 05:07:35;;;;;;;72.22;30.20;;;64.30;2201.60;;;;;;5102961;28;20481;-61
2021/01/18 05:10:08;;;;;;;81.57;33.63;;;64.30;2201.60;;;;;;5092032;28;20091;-60
2021/01/18 05:12:37;;;;;;;77.97;30.83;;;64.30;2201.60;;;;;;5096895;28;20027;-61
2021/01/18 05:15:07;;;;;;;;;;;64.30;2201.60;;;;;;5078933;28;20032;-63
2021/01/18 05:17:47;;;;;;;71.80;31.00;;;64.40;2201.60;;;;;;5096027;28;19904;-56
2021/01/18 05:20:16;;;;;;;71.53;30.97;;;64.50;2201.60;;;;;;5095300;28;20040;-56
2021/01/18 05:22:49;;;;;;;82.87;33.27;;;64.60;2201.60;;;;;;5095560;28;20024;-57
2021/01/18 05:25:15;;;;;;;85.70;31.80;;;64.60;2201.60;;;;;;5095425;28;20031;-56
2021/01/18 05:28:03;;;;;;;69.40;29.53;;;64.60;2201.60;;;;;;5095281;28;20025;-57
2021/01/18 05:30:35;;;;;;;79.75;32.78;;;64.70;2201.60;;;;;;5094348;28;20370;-57
2021/01/18 05:33:02;;;;;;;69.60;29.33;;;64.70;2201.60;;;;;;5095366;28;20028;-56
2021/01/18 05:35:28;;;;;;;68.63;29.97;;;64.80;2201.60;;;;;;5095145;28;20032;-56
2021/01/18 05:37:58;;;;;;;74.70;29.77;;;64.80;2201.60;;;;;;5095278;28;20116;-56
2021/01/18 05:40:25;;;;;;;62.50;27.13;;;64.90;2201.60;;;;;;5094736;28;20059;-57
2021/01/18 05:42:51;;;;;;;71.50;29.13;;;89.60;2201.60;;;;;;5093670;28;20015;-57
2021/01/18 05:45:38;;;;;;;64.80;25.53;;;89.70;2176.00;;;;;;5094889;28;20020;-57
2021/01/18 05:48:05;;;;;;;67.47;27.93;;;89.70;2176.00;;;;;;5094952;28;20035;-57
2021/01/18 05:50:33;;;;;;;68.40;27.63;;;89.80;2176.00;;;;;;5094623;28;20032;-57
2021/01/18 05:52:59;;;;;;;65.77;26.93;;;89.80;2176.00;;;;;;5094896;28;20122;-57
2021/01/18 05:55:31;;;;;;;70.70;27.73;;;89.70;2176.00;;;;;;5095053;28;20012;-57
2021/01/18 05:58:02;;;;;;;64.33;26.77;;;89.70;2176.00;;;;;;5094427;28;20351;-57
2021/01/18 06:00:33;;;;;;;72.40;28.93;;;89.60;2201.60;;;;;;5094905;28;20035;-57
2021/01/18 06:03:04;;;;;;;72.93;28.40;;;89.60;2201.60;;;;;;5094194;28;20111;-57
2021/01/18 06:05:32;;;;;;;75.83;28.97;;;64.90;2201.60;;;;;;5094665;28;20056;-56
2021/01/18 06:08:15;;;;;;;63.03;24.60;;;64.80;2201.60;;;;;;5094521;28;20038;-56
2021/01/18 06:10:42;;;;;;;66.77;27.37;;;64.70;2201.60;;;;;;5081747;28;20020;-56
2021/01/18 06:13:29;;;;;;;75.43;30.07;;;64.70;2201.60;;;;;;5094256;28;20378;-57
2021/01/18 06:16:08;;;;;;;62.83;26.13;;;64.80;2201.60;;;;;;5083054;28;20016;-57
2021/01/18 06:18:35;;;;;;;67.63;25.60;;;64.80;2201.60;;;;;;5094186;28;20023;-57
2021/01/18 06:21:05;;;;;;;80.40;29.60;;;64.90;2201.60;;;;;;5094461;28;20446;-56
2021/01/18 06:23:32;;;;;;;79.57;30.33;;;89.60;2201.60;;;;;;5094098;28;20478;-56
2021/01/18 06:25:59;;;;;;;83.30;31.60;;;64.90;2201.60;;;;;;5076316;28;20416;-56
2021/01/18 06:28:31;;;;;;;73.97;28.13;;;64.80;2201.60;;;;;;5093744;28;20026;-57
2021/01/18 06:30:58;;;;;;;68.07;30.03;;;64.50;2201.60;;;;;;5094433;28;20019;-57
2021/01/18 06:33:49;;;;;;;81.80;34.43;;;64.50;2201.60;;;;;;5093980;28;20080;-57
2021/01/18 06:36:22;;;;;;;77.23;30.60;;;64.50;2201.60;;;;;;5094279;28;20020;-57
2021/01/18 06:39:02;;;;;;;77.90;29.13;;;64.40;2201.60;;;;;;5093604;28;20027;-57
2021/01/18 06:41:30;;;;;;;85.63;32.63;;;64.20;2201.60;;;;;;5093198;28;20071;-57
2021/01/18 06:43:57;;;;;;;73.28;29.83;;;64.30;2201.60;;;;;;5093576;28;20355;-58
2021/01/18 06:46:37;;;;;;;77.33;33.27;;;64.30;2201.60;;;;;;5102452;28;20469;-57
2021/01/18 06:49:04;;;;;;;77.30;32.97;;;64.30;2201.60;;;;;;5099013;28;20051;-57
2021/01/18 06:51:31;;;;;;;68.40;29.27;;;64.20;2201.60;;;;;;5080026;28;20016;-57
2021/01/18 06:53:58;;;;;;;65.67;27.90;;;64.20;2201.60;;;;;;5093583;28;20459;-57
2021/01/18 06:56:45;;;;;;;64.10;26.87;;;64.20;2201.60;;;;;;5093571;28;20153;-56
2021/01/18 06:59:39;;;;;;;64.87;27.50;;;64.30;2201.60;;;;;;5093407;28;20032;-57
2021/01/18 07:02:13;;;;;;;59.07;29.10;;;64.30;2201.60;;;;;;5082623;28;20020;-58
2021/01/18 07:04:49;;;;;;;67.57;27.87;;;64.40;2201.60;;;;;;5093307;28;20047;-56
2021/01/18 07:07:26;;;;;;;62.53;27.23;;;64.50;2201.60;;;;;;5093418;28;20428;-57
2021/01/18 07:09:57;;;;;;;61.10;28.13;;;64.40;2201.60;;;;;;5093117;28;20028;-56
2021/01/18 07:12:25;;;;;;;63.50;29.00;;;64.50;2201.60;;;;;;5092967;28;20097;-57
2021/01/18 07:14:58;;;;;;;71.90;28.70;;;64.40;2201.60;;;;;;5093406;28;20095;-57
2021/01/18 07:17:41;;;;;;;71.27;29.77;;;64.20;2201.60;;;;;;5093266;28;20471;-57
2021/01/18 07:20:12;;;;;;;76.27;31.83;;;64.20;2201.60;;;;;;5093205;28;20110;-57
2021/01/18 07:23:08;;;;;;;69.93;31.17;;;64.10;2201.60;;;;;;5092723;28;20098;-57
2021/01/18 07:25:38;;;;;;;64.63;28.37;;;64.00;2201.60;;;;;;5093477;28;20462;-57
2021/01/18 07:28:05;;;;;;;61.27;28.97;;;39.30;2201.60;;;;;;5092986;28;20024;-57
2021/01/18 07:30:36;;;;;;;59.87;27.60;;;39.20;2201.60;;;;;;5093156;28;20099;-57
2021/01/18 07:33:11;;;;;;;60.93;26.40;;;39.00;2201.60;;;;;;5092628;28;20032;-56
2021/01/18 07:35:38;;;;;;;60.10;27.77;;;39.00;2201.60;;;;;;5093208;28;20031;-57
2021/01/18 07:38:16;;;;;;;57.80;26.33;;;39.00;2201.60;;;;;;5093152;28;20035;-56
2021/01/18 07:41:07;;;;;;;57.30;26.70;;;39.00;2201.60;;;;;;5092949;28;20103;-58
2021/01/18 07:43:40;;;;;;;55.70;24.80;;;39.00;2201.60;;;;;;5092008;28;20028;-56
2021/01/18 07:46:25;;;;;;;61.53;26.90;;;38.90;2201.60;;;;;;5093103;28;20107;-57
2021/01/18 07:48:55;;;;;;;57.33;26.80;;;38.80;2201.60;;;;;;5092817;28;20102;-56
2021/01/18 07:51:27;;;;;;;60.60;29.27;;;39.00;2201.60;;;;;;5100909;28;20107;-56
2021/01/18 07:53:54;;;;;;;56.90;25.97;;;39.00;2201.60;;;;;;5100199;28;20035;-59
2021/01/18 07:56:26;;;;;;;50.03;22.80;;;39.30;2201.60;;;;;;5092531;28;20493;-59
2021/01/18 07:59:08;;;;;;;55.90;25.97;;;64.10;2201.60;;;;;;5092393;28;20066;-60
2021/01/18 08:01:37;;;;;;;64.50;30.03;;;64.20;2201.60;;;;;;5092389;28;20111;-59
2021/01/18 08:04:22;;;;;;;60.15;28.08;;;64.10;2201.60;;;;;;5092279;28;20383;-59
2021/01/18 08:07:07;;;;;;;56.53;27.07;;;39.30;2201.60;;;;;;5081205;28;20032;-60
2021/01/18 08:09:34;;;;;;;58.57;26.93;;;39.20;2201.60;;;;;;5067453;28;20021;-59
2021/01/18 08:12:28;;;;;;;64.77;28.83;;;39.30;2201.60;;;;;;5092231;28;20028;-59
2021/01/18 08:14:55;;;;;;;63.13;29.90;;;64.00;2201.60;;;;;;5092348;28;20024;-60
2021/01/18 08:17:21;;;;;;;62.10;27.63;;;64.00;2201.60;;;;;;5091959;28;20420;-60
2021/01/18 08:20:05;;;;;;;59.93;27.67;;;64.10;2201.60;;;;;;5074245;28;20154;-59
2021/01/18 08:22:31;;;;;;;66.20;31.37;;;64.00;2201.60;;;;;;5092396;28;20103;-60
2021/01/18 08:24:57;;;;;;;65.37;27.47;;;64.00;2201.60;;;;;;5092412;28;20094;-60
2021/01/18 08:27:36;;;;;;;60.20;27.10;;;39.30;2201.60;;;;;;5092333;28;20074;-62
2021/01/18 08:30:14;;;;;;;;;;;39.30;2201.60;;;;;;5092205;28;20028;-61
2021/01/18 08:32:42;;;;;;;59.22;26.08;;;64.00;2201.60;;;;;;5092244;28;19904;-64
2021/01/18 08:35:17;;;;;;;68.40;31.90;;;64.00;2201.60;;;;;;5093405;28;20378;-63
2021/01/18 08:38:00;;;;;;;66.47;31.30;;;64.00;2201.60;;;;;;5093411;28;20032;-62
2021/01/18 08:40:46;;;;;;;64.30;30.07;;;39.10;2201.60;;;;;;5092953;28;20047;-63
2021/01/18 08:43:13;;;;;;;72.27;34.43;;;38.90;2201.60;;;;;;5100692;28;20454;-63
2021/01/18 08:45:41;;;;;;;64.73;30.47;;;38.80;2201.60;;;;;;5113332;28;20028;-62
2021/01/18 08:48:13;;;;;;;61.72;29.60;;;38.60;2201.60;;;;;;5102937;28;20465;-63
2021/01/18 08:50:43;;;;;;;66.43;31.10;;;38.40;2201.60;;;;;;5094116;28;20550;-61
2021/01/18 08:53:32;;;;;;;59.10;28.13;;;38.40;2201.60;;;;;;5103680;28;20070;-62
2021/01/18 08:56:01;;;;;;;61.93;27.73;;;38.60;2201.60;;;;;;5091934;28;20016;-62
2021/01/18 08:58:44;;;;;;;73.63;32.97;;;38.80;2201.60;;;;;;5092134;28;20453;-62
2021/01/18 09:01:15;;;;;;;69.13;31.33;;;38.90;2201.60;;;;;;5108786;28;20035;-62
2021/01/18 09:03:41;;;;;;;63.30;29.40;;;39.00;2201.60;;;;;;5100974;28;20034;-62
2021/01/18 09:06:07;;;;;;;60.37;29.07;;;39.00;2201.60;;;;;;5094101;28;20497;-62
2021/01/18 09:08:33;;;;;;;61.87;29.57;;;39.10;2201.60;;;;;;5095516;28;20081;-62
2021/01/18 09:11:09;;;;;;;57.57;28.33;;;38.90;2201.60;;;;;;5095848;28;20073;-62
2021/01/18 09:13:37;;;;;;;56.73;27.20;;;39.10;2201.60;;;;;;5095556;28;20027;-64
2021/01/18 09:16:06;;;;;;;60.95;28.25;;;39.10;2201.60;;;;;;5095872;28;20024;-62
2021/01/18 09:18:32;;;;;;;56.35;27.10;;;38.80;2201.60;;;;;;5108594;28;20027;-61
2021/01/18 09:20:59;;;;;;;57.60;25.97;;;38.70;2201.60;;;;;;5095646;28;20036;-62
2021/01/18 09:23:27;;;;;;;59.10;28.87;;;38.80;2201.60;;;;;;5094100;28;20099;-62
2021/01/18 09:26:01;;;;;;;57.83;27.13;;;38.80;2201.60;;;;;;5100581;28;20074;-61
2021/01/18 09:28:27;;;;;;;61.07;27.63;;;38.80;2201.60;;;;;;5103772;28;20024;-62
2021/01/18 09:30:53;;;;;;;50.70;25.07;;;38.70;2201.60;;;;;;5109245;28;20384;-61
2021/01/18 09:33:18;;;;;;;56.30;27.97;;;38.70;2201.60;;;;;;5108124;28;20032;-62
2021/01/18 09:35:45;;;;;;;54.87;27.30;;;38.60;2201.60;;;;;;5115451;28;20594;-62
2021/01/18 09:38:13;;;;;;;54.20;26.97;;;38.40;2201.60;;;;;;5115869;28;20431;-66
2021/01/18 09:40:41;;;;;;;55.77;28.07;;;13.70;2176.00;;;;;;5101515;28;20035;-69
2021/01/18 09:43:08;;;;;;;53.22;26.33;;;38.40;2176.00;;;;;;5116089;28;20026;-69
2021/01/18 09:45:34;;;;;;;57.43;27.33;;;38.40;2176.00;;;;;;5115419;28;20032;-63
2021/01/18 09:48:06;;;;;;;49.07;25.77;;;38.40;2176.00;;;;;;5108488;28;20056;-65
2021/01/18 09:50:33;;;;;;;55.80;26.63;;;38.40;2176.00;;;;;;5095392;28;20028;-62
2021/01/18 09:53:03;;;;;;;51.10;25.27;;;38.40;2124.80;;;;;;5056275;28;20120;-62
2021/01/18 09:55:35;;;;;;;51.40;23.60;;;38.60;2201.60;;;;;;5087768;28;20028;-62
2021/01/18 09:58:08;;;;;;;45.07;23.37;;;38.80;2201.60;;;;;;5099815;28;20111;-62
2021/01/18 10:00:38;;;;;;;42.10;21.63;;;38.50;2150.40;;;;;;5099804;28;20401;-62
2021/01/18 10:03:04;;;;;;;51.13;24.33;;;38.40;2124.80;;;;;;5105374;28;20567;-62
2021/01/18 10:05:32;;;;;;;49.33;22.53;;;38.50;2150.40;;;;;;5095000;28;20044;-61
2021/01/18 10:08:02;;;;;;;55.15;25.77;;;38.50;2124.80;;;;;;5094449;28;20023;-62
2021/01/18 10:10:27;;;;;;;60.70;25.03;;;13.70;2124.80;;;;;;5094803;28;20028;-61
2021/01/18 10:12:54;;;;;;;49.93;22.87;;;38.60;2201.60;;;;;;5094291;28;20028;-62
2021/01/18 10:15:26;;;;;;;54.87;26.40;;;38.70;2201.60;;;;;;5094427;28;20378;-62
2021/01/18 10:17:54;;;;;;;52.07;25.03;;;38.50;2201.60;;;;;;5093944;28;20111;-61
2021/01/18 10:20:28;;;;;;;53.53;25.23;;;38.50;2201.60;;;;;;5095837;28;20085;-62
2021/01/18 10:22:55;;;;;;;53.23;25.83;;;38.80;2201.60;;;;;;5095456;28;20020;-59
2021/01/18 10:25:25;;;;;;;58.30;27.53;;;38.60;2201.60;;;;;;5094383;28;20024;-62
2021/01/18 10:27:55;;;;;;;55.03;27.83;;;38.80;2201.60;;;;;;5094209;28;20030;-62
2021/01/18 10:30:26;;;;;;;58.37;25.33;;;38.40;2201.60;;;;;;5104519;28;20059;-62
2021/01/18 10:32:54;;;;;;;51.23;25.27;;;38.50;2201.60;;;;;;5110865;28;20019;-62
2021/01/18 10:35:22;;;;;;;61.60;29.70;;;38.60;2201.60;;;;;;5094147;28;20028;-61
2021/01/18 10:37:48;;;;;;;;;;;38.60;2201.60;;;;;;5094690;28;20111;-61
2021/01/18 10:40:20;;;;;;;47.10;22.73;;;13.70;2201.60;;;;;;5094444;28;20050;-61
2021/01/18 10:42:53;;;;;;;51.93;24.73;;;13.50;2150.40;;;;;;5093847;28;20020;-62
2021/01/18 10:45:26;;;;;;;50.83;24.63;;;13.40;2150.40;;;;;;5084157;28;20024;-60
2021/01/18 10:47:59;;;;;;;50.93;25.03;;;13.40;2150.40;;;;;;5107558;28;20506;-60
2021/01/18 10:50:29;;;;;;;53.70;24.20;;;13.30;2150.40;;;;;;5107891;28;20032;-60
2021/01/18 10:53:11;;;;;;;46.87;24.03;;;13.20;2124.80;;;;;;5093692;28;20351;-60
2021/01/18 10:55:37;;;;;;;49.33;24.83;;;13.00;2073.60;;;;;;5081203;28;20073;-59
2021/01/18 10:58:06;;;;;;;44.33;23.30;;;13.10;2099.20;;;;;;5097000;28;20023;-60
2021/01/18 11:00:33;;;;;;;46.13;23.98;;;13.30;2150.40;;;;;;5107440;28;20035;-60
2021/01/18 11:03:03;;;;;;;41.63;23.30;;;13.40;2150.40;;;;;;5108718;28;20385;-59
2021/01/18 11:05:33;;;;;;;43.70;21.57;;;13.40;2099.20;;;;;;5111581;28;20047;-59
2021/01/18 11:08:01;;;;;;;45.97;22.50;;;13.30;2099.20;;;;;;5113314;28;20473;-59
2021/01/18 11:10:30;;;;;;;47.10;24.27;;;13.20;2073.60;;;;;;5095595;28;20028;-62
2021/01/18 11:13:10;;;;;;;47.77;23.07;;;13.20;2099.20;;;;;;5093447;28;20095;-60
2021/01/18 11:15:44;;;;;;;40.63;22.10;;;13.60;2150.40;;;;;;5093462;28;20020;-60
2021/01/18 11:18:12;;;;;;;40.70;21.10;;;13.30;2073.60;;;;;;5101847;28;20104;-60
2021/01/18 11:20:39;;;;;;;44.97;21.97;;;13.10;2048.00;;;;;;5110128;28;20035;-60
2021/01/18 11:23:09;;;;;;;40.13;19.93;;;13.40;2048.00;;;;;;5093226;28;20028;-60
2021/01/18 11:25:35;;;;;;;42.13;21.03;;;13.20;2048.00;;;;;;5092966;28;20024;-62
2021/01/18 11:28:27;;;;;;;45.63;23.47;;;13.10;2022.40;;;;;;5092693;28;20016;-62
2021/01/18 11:30:53;;;;;;;44.23;23.33;;;12.90;1996.80;;;;;;5088814;28;20032;-61
2021/01/18 11:33:19;;;;;;;42.63;22.50;;;13.10;2022.40;;;;;;5092828;28;20485;-59
2021/01/18 11:35:47;;;;;;;43.63;21.27;;;0.00;1971.20;;;;;;5092819;28;20474;-60
2021/01/18 11:38:13;;;;;;;45.23;20.80;;;0.20;1971.20;;;;;;5092945;28;20043;-60
2021/01/18 11:40:40;;;;;;;42.57;20.97;;;0.50;1920.00;;;;;;5092960;28;20591;-60
2021/01/18 11:43:05;;;;;;;37.10;18.90;;;0.80;1868.80;;;;;;5091400;28;20024;-59
2021/01/18 11:45:31;;;;;;;34.33;19.63;;;25.70;1817.60;;;;;;5074619;28;20043;-59
2021/01/18 11:47:57;;;;;;;38.22;18.80;;;25.90;1792.00;;;;;;5100118;28;20015;-60
2021/01/18 11:50:22;;;;;;;33.13;16.65;;;25.80;1792.00;;;;;;5097282;28;20496;-62
2021/01/18 11:52:54;;;;;;;29.10;15.52;;;26.30;1715.20;;;;;;5074073;28;20587;-58
2021/01/18 11:55:20;;;;;;;33.00;16.83;;;26.30;1689.60;;;;;;5092774;28;20016;-61
2021/01/18 11:57:47;;;;;;;34.58;19.08;;;26.30;1715.20;;;;;;5095044;28;20482;-60
2021/01/18 12:00:34;;;;;;;33.85;16.52;;;26.50;1689.60;;;;;;5101121;28;20111;-62
2021/01/18 12:03:00;;;;;;;28.63;15.45;;;51.20;1715.20;;;;;;5092288;28;20484;-62
2021/01/18 12:05:27;;;;;;;31.55;16.63;;;26.20;1715.20;;;;;;5078322;28;20053;-62
2021/01/18 12:07:54;;;;;;;31.27;17.52;;;0.80;1817.60;;;;;;5091083;28;20081;-61
2021/01/18 12:10:20;;;;;;;34.47;18.80;;;0.90;1817.60;;;;;;5072079;28;20390;-61
2021/01/18 12:12:49;;;;;;;34.22;17.77;;;26.00;1766.40;;;;;;5092612;28;20372;-62
2021/01/18 12:15:15;;;;;;;;;;;26.30;1766.40;;;;;;5092924;28;20032;-61
2021/01/18 12:17:42;;;;;;;33.78;17.10;;;26.00;1715.20;;;;;;5096911;28;19904;-62
2021/01/18 12:20:10;;;;;;;36.65;18.50;;;25.80;1766.40;;;;;;5098093;28;20111;-61
2021/01/18 12:22:36;;;;;;;28.33;16.05;;;26.30;1740.80;;;;;;5092497;28;20008;-61
2021/01/18 12:25:04;;;;;;;33.35;17.25;;;26.20;1689.60;;;;;;5092660;28;20131;-60
2021/01/18 12:27:30;;;;;;;24.15;13.00;;;25.70;1740.80;;;;;;5091967;28;20454;-62